Time;durP1;ratioP1;P1;durP2;ratioP2;P2;SDS_P1;SDS_P2;PMS_P1;PMS_P2;Temp;Humidity;BMP_temperature;BMP_pressure;BME280_temperature;BME280_humidity;BME280_pressure;Samples;Min_cycle;Max_cycle;Signal;HPM_P1;HPM_P2
2023/12/10 00:02:09;;;;;;;17.98;4.32;;;;;;;7.99;100.00;99787.31;5047324;28;20119;-69
2023/12/10 00:04:34;;;;;;;16.65;4.88;;;;;;;8.03;100.00;99792.03;5047498;28;20470;-69
2023/12/10 00:07:00;;;;;;;22.65;5.30;;;;;;;8.04;100.00;99788.38;5029090;28;20040;-69
2023/12/10 00:09:26;;;;;;;19.27;3.75;;;;;;;8.09;100.00;99793.84;5049048;28;20367;-69
2023/12/10 00:11:51;;;;;;;21.48;5.22;;;;;;;8.09;100.00;99787.72;5051188;28;20036;-69
2023/12/10 00:14:17;;;;;;;17.85;4.30;;;;;;;8.15;100.00;99792.22;5050883;28;20376;-69
2023/12/10 00:16:42;;;;;;;18.52;3.67;;;;;;;8.20;100.00;99797.72;5051252;28;20083;-69
2023/12/10 00:19:07;;;;;;;14.63;3.15;;;;;;;8.22;100.00;99797.50;5050784;28;20033;-69
2023/12/10 00:21:33;;;;;;;16.08;3.30;;;;;;;8.21;100.00;99793.22;5051173;28;20025;-69
2023/12/10 00:23:58;;;;;;;22.17;4.10;;;;;;;8.24;100.00;99800.78;5028937;28;20523;-69
2023/12/10 00:26:23;;;;;;;22.70;4.25;;;;;;;8.25;100.00;99795.28;5013945;28;20040;-69
2023/12/10 00:28:49;;;;;;;14.60;4.82;;;;;;;8.27;100.00;99801.16;5031795;28;20496;-69
2023/12/10 00:31:14;;;;;;;17.23;5.28;;;;;;;8.29;100.00;99806.28;5031699;28;20029;-69
2023/12/10 00:33:39;;;;;;;17.75;3.80;;;;;;;8.27;100.00;99803.03;5014056;28;20601;-69
2023/12/10 00:36:05;;;;;;;20.75;5.13;;;;;;;8.33;100.00;99818.13;5031554;28;20041;-69
2023/12/10 00:38:31;;;;;;;20.70;4.28;;;;;;;8.35;100.00;99806.25;5031625;28;20099;-69
2023/12/10 00:40:57;;;;;;;13.10;3.00;;;;;;;8.39;100.00;99816.50;4996165;28;20061;-69
2023/12/10 00:43:22;;;;;;;15.25;3.30;;;;;;;8.44;100.00;99830.00;5031163;28;20110;-69
2023/12/10 00:45:47;;;;;;;17.55;4.85;;;;;;;8.44;100.00;99822.03;5013574;28;20037;-69
2023/12/10 00:48:13;;;;;;;10.77;2.33;;;;;;;8.45;100.00;99829.78;5013412;28;20048;-69
2023/12/10 00:50:38;;;;;;;15.60;2.63;;;;;;;8.45;100.00;99842.25;5031197;28;20404;-69
2023/12/10 00:53:04;;;;;;;13.95;2.95;;;;;;;8.45;100.00;99831.63;4996953;28;20076;-69
2023/12/10 00:55:29;;;;;;;17.13;2.90;;;;;;;8.41;100.00;99846.34;5031115;28;20037;-69
2023/12/10 00:57:55;;;;;;;17.42;3.72;;;;;;;8.37;100.00;99839.78;5030937;28;20040;-69
2023/12/10 01:00:21;;;;;;;16.55;2.85;;;;;;;8.31;100.00;99850.22;5030949;28;20473;-69
2023/12/10 01:02:47;;;;;;;15.90;3.88;;;;;;;8.30;100.00;99859.19;5031157;28;20025;-69
2023/12/10 01:05:13;;;;;;;17.35;2.95;;;;;;;8.28;100.00;99863.91;5013089;28;20033;-69
2023/12/10 01:07:38;;;;;;;13.88;3.65;;;;;;;8.21;100.00;99846.34;5030738;28;20075;-69
2023/12/10 01:10:07;;;;;;;18.38;2.97;;;;;;;8.16;100.00;99849.63;5037622;28;20029;-69
2023/12/10 01:12:37;;;;;;;11.85;2.15;;;;;;;8.13;100.00;99860.66;5026436;28;20462;-69
2023/12/10 01:15:08;;;;;;;20.52;3.22;;;;;;;8.10;100.00;99864.53;5030613;28;20624;-69
2023/12/10 01:17:33;;;;;;;22.02;4.72;;;;;;;8.05;100.00;99858.22;5030976;28;20048;-69
2023/12/10 01:20:00;;;;;;;20.23;4.88;;;;;;;8.03;100.00;99855.75;5013005;28;20795;-69
2023/12/10 01:22:25;;;;;;;15.40;3.20;;;;;;;8.02;100.00;99871.91;5037346;28;20033;-69
2023/12/10 01:24:52;;;;;;;14.98;4.25;;;;;;;8.00;100.00;99863.31;5030113;28;20078;-69
2023/12/10 01:27:18;;;;;;;10.25;3.50;;;;;;;7.98;100.00;99854.72;5032148;28;20021;-69
2023/12/10 01:29:43;;;;;;;16.52;5.63;;;;;;;8.00;100.00;99858.00;5032187;28;20545;-69
2023/12/10 01:32:10;;;;;;;18.15;3.53;;;;;;;8.01;100.00;99855.13;5031887;28;20032;-69
2023/12/10 01:34:36;;;;;;;17.42;4.18;;;;;;;8.03;100.00;99862.91;5016621;28;20049;-69
2023/12/10 01:37:01;;;;;;;18.33;4.05;;;;;;;8.00;100.00;99868.63;5030415;28;20034;-69
2023/12/10 01:39:27;;;;;;;22.15;3.78;;;;;;;7.98;100.00;99863.50;5012768;28;20488;-69
2023/12/10 01:41:52;;;;;;;11.90;2.55;;;;;;;8.00;100.00;99877.41;5030442;28;20033;-69
2023/12/10 01:44:18;;;;;;;20.13;3.95;;;;;;;8.01;100.00;99876.38;5028965;28;20057;-69
2023/12/10 01:46:45;;;;;;;16.85;3.17;;;;;;;8.02;100.00;99893.16;5030504;28;20029;-69
2023/12/10 01:49:11;;;;;;;14.52;2.90;;;;;;;8.01;100.00;99904.75;5012917;28;20041;-69
2023/12/10 01:51:37;;;;;;;13.85;4.35;;;;;;;7.91;100.00;99902.50;5030156;28;20465;-69
2023/12/10 01:54:03;;;;;;;15.35;3.95;;;;;;;7.85;100.00;99903.31;4996076;28;21008;-69
2023/12/10 01:56:30;;;;;;;14.25;2.47;;;;;;;7.87;100.00;99911.91;5012747;28;20057;-69
2023/12/10 01:58:56;;;;;;;14.10;3.78;;;;;;;7.79;100.00;99896.19;5049062;28;20051;-69
2023/12/10 02:01:23;;;;;;;22.85;4.78;;;;;;;7.78;100.00;99900.69;5031144;28;20175;-69
2023/12/10 02:03:49;;;;;;;16.95;3.05;;;;;;;7.74;100.00;99903.94;5029152;28;20368;-69
2023/12/10 02:06:15;;;;;;;17.52;3.10;;;;;;;7.67;100.00;99894.09;5044540;28;20083;-69
2023/12/10 02:08:40;;;;;;;19.85;3.97;;;;;;;7.68;100.00;99916.16;4998376;28;20120;-69
2023/12/10 02:11:06;;;;;;;15.30;3.50;;;;;;;7.66;100.00;99910.25;5012132;28;20689;-69
2023/12/10 02:13:31;;;;;;;11.55;2.85;;;;;;;7.66;100.00;99902.28;5028502;28;20978;-69
2023/12/10 02:15:57;;;;;;;19.08;4.07;;;;;;;7.59;100.00;99902.25;5044825;28;20127;-69
2023/12/10 02:18:22;;;;;;;18.17;4.18;;;;;;;7.61;100.00;99900.22;5012738;28;20072;-69
2023/12/10 02:20:49;;;;;;;14.38;5.72;;;;;;;7.60;100.00;99909.19;5048473;28;20029;-69
2023/12/10 02:23:32;;;;;;;15.75;3.33;;;;;;;7.61;100.00;99913.47;5048611;28;20104;-69
2023/12/10 02:25:58;;;;;;;13.40;2.83;;;;;;;7.60;100.00;99895.13;5048575;28;20016;-69
2023/12/10 02:28:24;;;;;;;13.02;3.22;;;;;;;7.61;100.00;99912.66;5047939;28;20043;-68
2023/12/10 02:30:49;;;;;;;16.55;5.75;;;;;;;7.59;100.00;99912.84;5030591;28;20033;-69
2023/12/10 02:33:15;;;;;;;13.50;2.85;;;;;;;7.57;100.00;99914.06;5043544;28;20038;-69
2023/12/10 02:35:40;;;;;;;18.92;4.75;;;;;;;7.59;100.00;99923.47;5011551;28;20495;-69
2023/12/10 02:38:06;;;;;;;10.43;2.10;;;;;;;7.61;100.00;99915.31;5030657;28;20666;-68
2023/12/10 02:40:31;;;;;;;14.00;3.63;;;;;;;7.59;100.00;99907.56;5029847;28;20037;-69
2023/12/10 02:42:57;;;;;;;15.98;2.50;;;;;;;7.63;100.00;99924.72;5029424;28;20496;-68
2023/12/10 02:45:22;;;;;;;17.45;2.50;;;;;;;7.62;100.00;99930.22;5034632;28;20500;-69
2023/12/10 02:47:47;;;;;;;21.38;3.60;;;;;;;7.63;100.00;99926.56;5030637;28;20043;-69
2023/12/10 02:50:14;;;;;;;9.48;2.17;;;;;;;7.63;100.00;99931.88;5048037;28;20051;-69
2023/12/10 02:52:40;;;;;;;13.55;2.92;;;;;;;7.61;100.00;99936.56;5031399;28;20048;-68
2023/12/10 02:55:06;;;;;;;9.73;3.40;;;;;;;7.66;100.00;99939.44;5029170;28;20029;-69
2023/12/10 02:57:32;;;;;;;17.15;3.63;;;;;;;7.70;100.00;99924.72;5048032;28;20422;-69
2023/12/10 02:59:57;;;;;;;17.40;2.88;;;;;;;7.64;100.00;99922.88;5048174;28;20033;-68
2023/12/10 03:02:23;;;;;;;12.85;2.13;;;;;;;7.72;100.00;99935.97;5047901;28;20060;-69
2023/12/10 03:04:48;;;;;;;16.27;4.57;;;;;;;7.71;100.00;99938.84;5014271;28;20033;-69
2023/12/10 03:07:13;;;;;;;9.27;3.97;;;;;;;7.70;100.00;99945.94;5028592;28;20052;-69
2023/12/10 03:09:39;;;;;;;12.80;2.20;;;;;;;7.73;100.00;99950.88;5028235;28;20065;-69
2023/12/10 03:12:05;;;;;;;13.20;2.78;;;;;;;7.61;100.00;99941.84;5028434;28;20026;-69
2023/12/10 03:14:30;;;;;;;10.27;2.25;;;;;;;7.64;100.00;99946.75;5019501;28;20069;-69
2023/12/10 03:16:56;;;;;;;10.00;3.50;;;;;;;7.65;100.00;99937.78;5009519;28;20429;-69
2023/12/10 03:19:21;;;;;;;23.70;4.65;;;;;;;7.62;100.00;99949.63;5009311;28;20034;-69
2023/12/10 03:21:47;;;;;;;20.75;3.33;;;;;;;7.63;100.00;99945.94;5009305;28;20034;-69
2023/12/10 03:24:12;;;;;;;7.47;1.70;;;;;;;7.64;100.00;99968.81;4980356;28;20481;-69
2023/12/10 03:26:38;;;;;;;11.52;2.15;;;;;;;7.68;100.00;99963.94;5028400;28;20060;-69
2023/12/10 03:29:04;;;;;;;14.02;2.65;;;;;;;7.73;100.00;99960.66;5028187;28;20055;-69
2023/12/10 03:31:29;;;;;;;15.55;2.80;;;;;;;7.75;100.00;99971.91;5043396;28;20253;-69
2023/12/10 03:33:55;;;;;;;13.32;3.78;;;;;;;7.80;100.00;99964.16;5001054;28;20030;-68
2023/12/10 03:36:21;;;;;;;24.60;4.05;;;;;;;7.86;100.00;99977.47;5009110;28;20060;-69
2023/12/10 03:38:47;;;;;;;16.05;2.92;;;;;;;7.89;100.00;99961.13;4991285;28;20552;-69
2023/12/10 03:41:12;;;;;;;13.77;2.83;;;;;;;7.97;100.00;99983.22;5009216;28;20109;-68
2023/12/10 03:43:37;;;;;;;16.52;3.08;;;;;;;7.93;100.00;99982.78;5009169;28;20500;-69
2023/12/10 03:46:03;;;;;;;18.15;2.78;;;;;;;8.04;100.00;99968.94;5013032;28;20113;-68
2023/12/10 03:48:29;;;;;;;8.35;2.42;;;;;;;8.06;100.00;99987.31;4995140;28;20440;-69
2023/12/10 03:50:54;;;;;;;16.13;2.58;;;;;;;8.05;100.00;99986.47;4994993;28;20096;-68
2023/12/10 03:53:19;;;;;;;13.23;2.42;;;;;;;8.11;100.00;99993.63;4995259;28;20084;-69
2023/12/10 03:55:45;;;;;;;8.10;2.88;;;;;;;8.12;100.00;99983.81;5012964;28;20128;-69
2023/12/10 03:58:10;;;;;;;12.10;2.85;;;;;;;8.03;100.00;99988.53;4994998;28;20129;-69
2023/12/10 04:00:36;;;;;;;15.90;5.72;;;;;;;8.00;100.00;99983.63;5012785;28;20033;-68
2023/12/10 04:03:01;;;;;;;17.67;3.17;;;;;;;8.00;100.00;99982.81;4994767;28;20568;-68
2023/12/10 04:05:26;;;;;;;19.35;3.80;;;;;;;8.10;100.00;99988.53;4994786;28;20040;-68
2023/12/10 04:07:52;;;;;;;13.25;3.22;;;;;;;8.14;100.00;100000.38;5012672;28;20104;-69
2023/12/10 04:10:18;;;;;;;10.60;2.88;;;;;;;8.11;100.00;100016.72;4994455;28;20038;-68
2023/12/10 04:12:44;;;;;;;16.48;4.20;;;;;;;8.09;100.00;99982.38;5027718;28;20057;-69
2023/12/10 04:15:10;;;;;;;14.90;2.78;;;;;;;8.19;100.00;100000.59;5003921;28;20136;-69
2023/12/10 04:17:37;;;;;;;12.73;2.88;;;;;;;8.23;100.00;100016.97;5016562;28;20106;-69
2023/12/10 04:20:03;;;;;;;14.98;3.13;;;;;;;8.24;100.00;100005.31;5050942;28;20063;-69
2023/12/10 04:22:28;;;;;;;16.33;2.47;;;;;;;8.25;100.00;100018.41;5038213;28;20388;-68
2023/12/10 04:24:54;;;;;;;11.63;2.20;;;;;;;8.26;100.00;100035.16;5031826;28;20040;-69
2023/12/10 04:27:19;;;;;;;15.68;4.05;;;;;;;8.25;100.00;100013.09;5014152;28;20029;-69
2023/12/10 04:29:44;;;;;;;11.75;2.55;;;;;;;8.35;100.00;100026.78;5031770;28;20029;-68
2023/12/10 04:32:10;;;;;;;14.75;4.13;;;;;;;8.41;100.00;100030.50;5010468;28;20126;-68
2023/12/10 04:34:36;;;;;;;15.18;2.47;;;;;;;8.40;100.00;100052.78;5027283;28;20045;-69
2023/12/10 04:37:02;;;;;;;17.83;2.33;;;;;;;8.40;100.00;100058.09;5031267;28;20040;-69
2023/12/10 04:39:27;;;;;;;16.55;3.42;;;;;;;8.42;100.00;100071.19;5031216;28;20118;-69
2023/12/10 04:41:53;;;;;;;12.40;3.88;;;;;;;8.41;100.00;100064.22;5013722;28;20503;-69
2023/12/10 04:44:18;;;;;;;10.88;2.53;;;;;;;8.40;100.00;100054.63;5031226;28;20033;-69
2023/12/10 04:46:44;;;;;;;14.63;2.97;;;;;;;8.37;100.00;100068.28;5039694;28;20044;-69
2023/12/10 04:49:09;;;;;;;7.55;2.28;;;;;;;8.40;100.00;100059.94;5032492;28;20048;-69
2023/12/10 04:51:35;;;;;;;15.75;3.28;;;;;;;8.35;100.00;100071.94;5032384;28;20037;-69
2023/12/10 04:54:00;;;;;;;11.93;2.22;;;;;;;8.31;100.00;100046.81;5032451;28;20121;-69
2023/12/10 04:56:27;;;;;;;14.27;2.78;;;;;;;8.37;100.00;100074.41;5050039;28;20045;-69
2023/12/10 04:58:52;;;;;;;14.85;2.65;;;;;;;8.42;100.00;100076.50;5043192;28;20063;-69
2023/12/10 05:01:18;;;;;;;18.63;4.65;;;;;;;8.45;100.00;100100.00;5031089;28;20499;-68
2023/12/10 05:03:43;;;;;;;12.50;2.75;;;;;;;8.49;100.00;100095.94;5013369;28;20120;-68
2023/12/10 05:06:08;;;;;;;11.48;2.05;;;;;;;8.46;100.00;100088.34;5031268;28;20037;-68
2023/12/10 05:08:34;;;;;;;8.63;2.05;;;;;;;8.50;100.00;100105.53;5031034;28;20129;-68
2023/12/10 05:10:59;;;;;;;10.05;2.35;;;;;;;8.41;100.00;100096.94;5030944;28;20593;-68
2023/12/10 05:13:25;;;;;;;13.57;3.97;;;;;;;8.40;100.00;100108.56;5013329;28;20033;-68
2023/12/10 05:15:51;;;;;;;21.13;3.33;;;;;;;8.47;100.00;100124.53;5030636;28;20526;-68
2023/12/10 05:18:16;;;;;;;13.40;2.72;;;;;;;8.43;100.00;100115.31;5030870;28;20052;-69
2023/12/10 05:20:42;;;;;;;15.73;2.63;;;;;;;8.55;100.00;100133.16;5029201;28;20030;-68
2023/12/10 05:23:07;;;;;;;13.13;3.58;;;;;;;8.48;100.00;100116.34;5030851;28;20140;-69
2023/12/10 05:25:32;;;;;;;12.60;3.35;;;;;;;8.52;100.00;100109.63;5030698;28;20033;-69
2023/12/10 05:27:58;;;;;;;9.95;2.75;;;;;;;8.52;100.00;100127.44;5031475;28;20033;-69
2023/12/10 05:30:24;;;;;;;14.55;4.43;;;;;;;8.54;100.00;100133.34;5032025;28;20032;-69
2023/12/10 05:32:49;;;;;;;10.32;3.42;;;;;;;8.53;100.00;100132.53;5050094;28;20478;-69
2023/12/10 05:35:14;;;;;;;12.23;2.72;;;;;;;8.53;100.00;100139.69;5024147;28;20074;-69
2023/12/10 05:37:40;;;;;;;11.00;1.95;;;;;;;8.61;100.00;100154.63;5031906;28;20503;-69
2023/12/10 05:40:06;;;;;;;13.00;2.33;;;;;;;8.56;100.00;100140.09;5031917;28;20041;-69
2023/12/10 05:42:31;;;;;;;11.23;2.55;;;;;;;8.54;100.00;100138.66;5031184;28;20517;-69
2023/12/10 05:44:58;;;;;;;10.52;2.45;;;;;;;8.56;100.00;100164.00;5031608;28;20047;-68
2023/12/10 05:47:24;;;;;;;6.22;2.15;;;;;;;8.55;100.00;100173.00;5049334;28;20025;-69
2023/12/10 05:49:49;;;;;;;19.25;2.38;;;;;;;8.58;100.00;100161.16;5049303;28;20510;-69
2023/12/10 05:52:15;;;;;;;17.33;3.17;;;;;;;8.51;100.00;100149.69;5049188;28;20048;-69
2023/12/10 05:54:40;;;;;;;15.00;4.68;;;;;;;8.55;100.00;100172.19;5049240;28;20170;-69
2023/12/10 05:57:06;;;;;;;9.52;1.75;;;;;;;8.60;100.00;100191.03;5031245;28;20045;-69
2023/12/10 05:59:31;;;;;;;12.88;3.03;;;;;;;8.59;100.00;100196.53;5031278;28;20479;-69
2023/12/10 06:01:57;;;;;;;9.27;2.50;;;;;;;8.64;100.00;100202.06;5047687;28;20029;-69
2023/12/10 06:04:22;;;;;;;12.23;2.22;;;;;;;8.58;100.00;100208.19;5049105;28;20052;-69
2023/12/10 06:06:48;;;;;;;11.82;2.28;;;;;;;8.61;100.00;100218.41;5048191;28;20067;-69
2023/12/10 06:09:14;;;;;;;11.23;3.95;;;;;;;8.52;100.00;100204.50;5048977;28;20051;-69
2023/12/10 06:11:40;;;;;;;14.40;2.35;;;;;;;8.58;100.00;100230.25;5048832;28;20147;-69
2023/12/10 06:14:05;;;;;;;12.73;2.03;;;;;;;8.59;100.00;100225.75;5031102;28;20439;-69
2023/12/10 06:16:30;;;;;;;14.32;3.30;;;;;;;8.59;100.00;100231.06;5048520;28;20198;-69
2023/12/10 06:18:56;;;;;;;12.10;3.08;;;;;;;8.60;100.00;100222.91;5048754;28;20408;-69
2023/12/10 06:21:21;;;;;;;18.30;4.03;;;;;;;8.61;100.00;100237.84;5048588;28;20027;-69
2023/12/10 06:23:47;;;;;;;16.65;3.63;;;;;;;8.51;100.00;100235.56;5048674;28;20487;-69
2023/12/10 06:26:12;;;;;;;15.68;2.30;;;;;;;8.60;100.00;100241.53;5030721;28;20029;-69
2023/12/10 06:28:37;;;;;;;18.25;2.97;;;;;;;8.61;100.00;100242.34;5014161;28;20029;-68
2023/12/10 06:31:03;;;;;;;13.13;2.92;;;;;;;8.60;100.00;100254.81;5029176;28;20076;-68
2023/12/10 06:33:28;;;;;;;10.80;3.90;;;;;;;8.56;100.00;100272.97;5011817;28;20033;-68
2023/12/10 06:35:54;;;;;;;12.15;3.42;;;;;;;8.55;100.00;100283.81;4995172;28;20041;-68
2023/12/10 06:38:19;;;;;;;12.68;3.25;;;;;;;8.45;100.00;100265.56;5029411;28;20030;-68
2023/12/10 06:40:45;;;;;;;12.05;2.38;;;;;;;8.53;100.00;100288.50;5029301;28;20026;-68
2023/12/10 06:43:10;;;;;;;12.13;2.35;;;;;;;8.28;100.00;100248.31;5041213;28;20116;-68
2023/12/10 06:45:36;;;;;;;13.48;3.03;;;;;;;8.49;100.00;100288.09;5048243;28;20035;-69
2023/12/10 06:48:01;;;;;;;10.52;3.17;;;;;;;8.53;100.00;100288.50;5030675;28;20536;-68
2023/12/10 06:50:27;;;;;;;17.17;3.08;;;;;;;8.52;100.00;100292.19;5030298;28;20037;-68
2023/12/10 06:52:52;;;;;;;22.17;5.45;;;;;;;8.56;100.00;100317.34;5048287;28;21034;-68
2023/12/10 06:55:17;;;;;;;15.23;3.25;;;;;;;8.56;100.00;100325.31;5048109;28;20043;-68
2023/12/10 06:57:43;;;;;;;10.23;1.83;;;;;;;8.53;100.00;100323.88;5048059;28;20037;-68
2023/12/10 07:00:09;;;;;;;8.70;1.95;;;;;;;8.54;100.00;100322.88;5030189;28;20116;-68
2023/12/10 07:02:34;;;;;;;16.95;2.47;;;;;;;8.53;100.00;100341.66;5048076;28;20104;-69
2023/12/10 07:05:00;;;;;;;11.85;2.92;;;;;;;8.53;100.00;100345.13;5048870;28;20441;-68
2023/12/10 07:07:25;;;;;;;10.27;2.40;;;;;;;8.57;100.00;100350.91;5047812;28;20029;-68
2023/12/10 07:09:50;;;;;;;9.55;1.98;;;;;;;8.60;100.00;100349.69;5030116;28;20028;-68
2023/12/10 07:12:16;;;;;;;11.25;2.85;;;;;;;8.63;100.00;100333.34;5029757;28;20040;-68
2023/12/10 07:14:41;;;;;;;12.73;2.60;;;;;;;8.60;100.00;100353.16;5047770;28;20055;-70
2023/12/10 07:17:06;;;;;;;15.55;3.47;;;;;;;8.58;100.00;100367.66;5047876;28;20387;-68
2023/12/10 07:19:32;;;;;;;20.40;4.38;;;;;;;8.53;100.00;100350.44;5021115;28;20105;-68
2023/12/10 07:21:57;;;;;;;11.77;2.65;;;;;;;8.56;100.00;100373.97;5028733;28;20029;-68
2023/12/10 07:24:23;;;;;;;17.52;3.47;;;;;;;8.52;100.00;100369.28;5028540;28;20041;-68
2023/12/10 07:26:48;;;;;;;17.52;2.42;;;;;;;8.58;100.00;100386.28;5028718;28;20175;-68
2023/12/10 07:29:14;;;;;;;14.25;4.68;;;;;;;8.54;100.00;100378.69;5028642;28;20124;-68
2023/12/10 07:31:39;;;;;;;11.63;1.90;;;;;;;8.52;100.00;100383.38;5028587;28;20034;-69
2023/12/10 07:34:04;;;;;;;15.50;4.05;;;;;;;8.51;100.00;100399.50;5028400;28;20043;-68
2023/12/10 07:36:30;;;;;;;10.95;2.67;;;;;;;8.51;100.00;100416.28;5027949;28;20538;-68
2023/12/10 07:38:55;;;;;;;8.25;2.42;;;;;;;8.53;100.00;100419.56;5027640;28;20152;-68
2023/12/10 07:41:21;;;;;;;12.55;2.75;;;;;;;8.59;100.00;100433.09;5009872;28;20372;-69
2023/12/10 07:43:47;;;;;;;12.57;3.53;;;;;;;8.61;100.00;100436.38;5010663;28;21023;-68
2023/12/10 07:46:13;;;;;;;16.38;2.72;;;;;;;8.58;100.00;100432.28;5011049;28;20034;-68
2023/12/10 07:48:38;;;;;;;13.05;2.20;;;;;;;8.63;100.00;100434.34;5027620;28;20029;-68
2023/12/10 07:51:03;;;;;;;8.93;2.65;;;;;;;8.63;100.00;100453.78;4993213;28;20029;-68
2023/12/10 07:53:29;;;;;;;7.82;1.55;;;;;;;8.63;100.00;100456.44;5021544;28;20642;-69
2023/12/10 07:55:54;;;;;;;16.08;3.08;;;;;;;8.62;100.00;100462.78;5046677;28;20035;-68
2023/12/10 07:58:22;;;;;;;10.20;2.28;;;;;;;8.62;100.00;100454.81;5028617;28;20036;-68
2023/12/10 08:00:47;;;;;;;11.55;3.13;;;;;;;8.62;100.00;100462.78;5044142;28;20056;-68
2023/12/10 08:03:14;;;;;;;15.18;4.18;;;;;;;8.60;100.00;100456.03;5010950;28;20494;-67
2023/12/10 08:05:39;;;;;;;11.05;2.72;;;;;;;8.63;100.00;100479.56;5046961;28;20090;-71
2023/12/10 08:08:05;;;;;;;14.20;2.28;;;;;;;8.61;100.00;100457.66;5047460;28;20112;-66
2023/12/10 08:10:31;;;;;;;9.77;1.58;;;;;;;8.66;100.00;100474.66;5047235;28;20064;-68
2023/12/10 08:12:56;;;;;;;9.48;3.58;;;;;;;8.67;100.00;100478.97;5047015;28;20033;-68
2023/12/10 08:15:22;;;;;;;9.35;1.92;;;;;;;8.62;100.00;100473.41;5028927;28;20053;-67
2023/12/10 08:17:47;;;;;;;9.52;2.22;;;;;;;8.65;100.00;100483.66;5039839;28;20025;-67
2023/12/10 08:20:13;;;;;;;10.38;2.72;;;;;;;8.60;100.00;100488.72;5047183;28;20036;-68
2023/12/10 08:22:38;;;;;;;8.63;2.25;;;;;;;8.48;100.00;100475.13;5029354;28;20124;-67
2023/12/10 08:25:05;;;;;;;10.75;2.78;;;;;;;8.56;100.00;100482.97;5029071;28;20059;-70
2023/12/10 08:27:31;;;;;;;10.02;2.45;;;;;;;8.52;100.00;100472.94;5046263;28;20025;-69
2023/12/10 08:29:56;;;;;;;10.25;2.10;;;;;;;8.60;100.00;100510.00;5021018;28;20034;-67
2023/12/10 08:32:21;;;;;;;9.02;2.92;;;;;;;8.59;100.00;100504.88;5030468;28;20120;-69
2023/12/10 08:34:47;;;;;;;13.80;2.03;;;;;;;8.63;100.00;100511.44;5011232;28;20048;-69
2023/12/10 08:37:12;;;;;;;11.05;2.20;;;;;;;8.62;100.00;100523.09;5017962;28;20087;-69
2023/12/10 08:39:38;;;;;;;14.80;2.22;;;;;;;8.60;100.00;100522.47;5013935;28;20041;-75
2023/12/10 08:42:03;;;;;;;10.70;2.13;;;;;;;8.61;100.00;100524.91;5045455;28;20021;-77
2023/12/10 08:44:29;;;;;;;12.70;2.97;;;;;;;8.59;100.00;100526.94;5034574;28;20036;-77
2023/12/10 08:46:54;;;;;;;17.00;3.13;;;;;;;8.50;100.00;100523.59;5042278;28;20048;-67
2023/12/10 08:49:19;;;;;;;11.35;3.22;;;;;;;8.50;100.00;100523.59;5047194;28;20546;-71
2023/12/10 08:51:45;;;;;;;8.05;2.03;;;;;;;8.54;100.00;100539.97;5042987;28;20385;-74
2023/12/10 08:54:10;;;;;;;11.30;3.38;;;;;;;8.51;100.00;100543.88;5042444;28;20033;-74
2023/12/10 08:56:36;;;;;;;11.13;1.90;;;;;;;8.51;100.00;100543.03;5041535;28;20026;-73
2023/12/10 08:59:03;;;;;;;16.02;3.63;;;;;;;8.51;100.00;100541.22;5037526;28;20038;-73
2023/12/10 09:01:29;;;;;;;10.43;2.45;;;;;;;8.53;100.00;100549.78;5020619;28;20507;-73
2023/12/10 09:03:55;;;;;;;13.88;2.20;;;;;;;8.52;100.00;100552.66;5044298;28;20033;-73
2023/12/10 09:06:21;;;;;;;14.18;2.65;;;;;;;8.46;100.00;100550.75;5041572;28;20057;-72
2023/12/10 09:08:46;;;;;;;15.85;3.28;;;;;;;8.57;100.00;100552.91;5038804;28;20033;-72
2023/12/10 09:11:12;;;;;;;10.75;2.85;;;;;;;8.54;100.00;100543.50;5036668;28;20461;-72
2023/12/10 09:13:37;;;;;;;14.85;2.90;;;;;;;8.48;100.00;100538.09;5003331;28;20040;-72
2023/12/10 09:16:03;;;;;;;17.42;4.03;;;;;;;8.48;100.00;100546.88;5038036;28;20166;-72
2023/12/10 09:18:28;;;;;;;29.70;4.53;;;;;;;8.51;100.00;100546.53;5018405;28;20029;-72
2023/12/10 09:20:54;;;;;;;14.35;2.75;;;;;;;8.62;100.00;100560.28;5024938;28;20035;-72
2023/12/10 09:23:20;;;;;;;14.82;3.67;;;;;;;8.64;100.00;100559.09;5038527;28;20033;-72
2023/12/10 09:25:46;;;;;;;14.93;2.90;;;;;;;8.66;100.00;100569.53;5022856;28;20037;-71
2023/12/10 09:28:11;;;;;;;16.05;3.42;;;;;;;8.65;100.00;100555.44;5047287;28;20048;-71
2023/12/10 09:30:37;;;;;;;16.45;2.72;;;;;;;8.67;100.00;100564.06;5039548;28;20488;-72
2023/12/10 09:33:02;;;;;;;15.57;3.05;;;;;;;8.71;100.00;100562.63;5047362;28;20336;-72
2023/12/10 09:35:27;;;;;;;19.70;3.97;;;;;;;8.70;100.00;100576.16;5044437;28;20143;-72
2023/12/10 09:37:53;;;;;;;16.40;4.13;;;;;;;8.77;100.00;100571.69;5013548;28;20539;-72
2023/12/10 09:40:18;;;;;;;16.33;2.30;;;;;;;8.76;100.00;100570.03;5033247;28;20030;-70
2023/12/10 09:42:44;;;;;;;11.70;3.40;;;;;;;8.86;100.00;100583.03;5022196;28;20033;-71
2023/12/10 09:45:09;;;;;;;10.88;2.83;;;;;;;9.03;100.00;100583.56;5026037;28;20148;-71
2023/12/10 09:47:35;;;;;;;19.67;3.10;;;;;;;9.02;100.00;100582.75;5029553;28;20034;-71
2023/12/10 09:50:02;;;;;;;16.45;4.20;;;;;;;8.88;100.00;100576.50;5038734;28;20128;-70
2023/12/10 09:52:28;;;;;;;13.10;2.70;;;;;;;8.85;100.00;100584.03;5038486;28;20030;-70
2023/12/10 09:54:53;;;;;;;30.23;5.50;;;;;;;8.85;100.00;100578.69;5041107;28;20075;-70
2023/12/10 09:57:20;;;;;;;10.18;3.05;;;;;;;8.87;100.00;100571.38;5044820;28;20783;-72
2023/12/10 09:59:48;;;;;;;12.02;2.20;;;;;;;8.90;100.00;100571.78;5038425;28;20397;-71
2023/12/10 10:02:15;;;;;;;16.08;3.00;;;;;;;8.95;100.00;100565.91;5018622;28;20108;-71
2023/12/10 10:04:41;;;;;;;14.88;3.25;;;;;;;8.92;100.00;100569.75;5021051;28;20041;-71
2023/12/10 10:07:07;;;;;;;17.30;2.75;;;;;;;8.90;100.00;100577.09;5021324;28;20025;-71
2023/12/10 10:09:36;;;;;;;12.52;2.28;;;;;;;8.97;100.00;100590.47;4989246;28;20052;-71
2023/12/10 10:12:02;;;;;;;15.85;2.97;;;;;;;9.03;100.00;100581.72;5021954;28;20033;-71
2023/12/10 10:14:28;;;;;;;15.38;2.83;;;;;;;9.00;100.00;100587.41;5039073;28;20064;-71
2023/12/10 10:16:53;;;;;;;23.02;5.20;;;;;;;9.08;100.00;100589.94;5033656;28;20089;-71
2023/12/10 10:19:19;;;;;;;12.00;2.10;;;;;;;9.04;100.00;100574.53;5019965;28;20083;-71
2023/12/10 10:21:45;;;;;;;12.05;3.08;;;;;;;9.12;100.00;100587.72;5039050;28;20078;-71
2023/12/10 10:24:11;;;;;;;14.25;2.05;;;;;;;9.16;100.00;100588.97;5021783;28;20476;-72
2023/12/10 10:26:38;;;;;;;9.60;2.38;;;;;;;9.13;100.00;100582.19;5002441;28;20052;-71
2023/12/10 10:29:07;;;;;;;13.07;2.45;;;;;;;9.16;100.00;100579.16;5032104;28;20468;-71
2023/12/10 10:31:33;;;;;;;13.95;2.53;;;;;;;9.17;100.00;100580.00;5000396;28;20040;-71
2023/12/10 10:34:04;;;;;;;17.10;3.47;;;;;;;9.20;100.00;100574.28;5037681;28;20407;-71
2023/12/10 10:36:31;;;;;;;16.40;4.38;;;;;;;9.32;100.00;100579.88;5040353;28;20029;-71
2023/12/10 10:38:56;;;;;;;10.70;2.33;;;;;;;9.26;100.00;100556.72;5034633;28;20068;-71
2023/12/10 10:41:25;;;;;;;14.32;4.07;;;;;;;9.36;100.00;100563.31;5022463;28;20522;-71
2023/12/10 10:43:50;;;;;;;17.38;3.75;;;;;;;9.37;100.00;100574.78;5040194;28;20066;-71
2023/12/10 10:46:20;;;;;;;15.90;2.47;;;;;;;9.21;100.00;100551.97;5019493;28;20029;-72
2023/12/10 10:48:51;;;;;;;19.08;3.30;;;;;;;9.23;100.00;100557.91;5038833;28;20044;-71
2023/12/10 10:51:22;;;;;;;10.40;2.83;;;;;;;9.20;100.00;100561.78;5034978;28;20025;-71
2023/12/10 10:53:51;;;;;;;14.88;3.13;;;;;;;9.19;100.00;100562.78;5027732;28;20381;-71
2023/12/10 10:56:17;;;;;;;18.38;3.88;;;;;;;9.14;100.00;100570.56;5036570;28;20051;-70
2023/12/10 10:58:42;;;;;;;9.68;2.03;;;;;;;9.15;100.00;100580.19;5022073;28;20420;-71
2023/12/10 11:01:36;;;;;;;16.27;2.88;;;;;;;9.22;100.00;100577.53;5036619;28;20124;-71
2023/12/10 11:04:02;;;;;;;15.10;3.13;;;;;;;9.25;100.00;100553.22;5033278;28;20024;-71
2023/12/10 11:06:28;;;;;;;15.52;2.47;;;;;;;9.32;100.00;100563.91;5035068;28;20040;-71
2023/12/10 11:08:59;;;;;;;10.73;2.17;;;;;;;9.38;100.00;100561.28;5037072;28;20133;-71
2023/12/10 11:11:26;;;;;;;11.43;2.38;;;;;;;9.48;100.00;100550.28;5019732;28;20042;-70
2023/12/10 11:13:53;;;;;;;10.93;1.92;;;;;;;9.44;100.00;100539.19;5038180;28;20030;-71
2023/12/10 11:16:21;;;;;;;8.50;2.08;;;;;;;9.54;100.00;100560.16;5036048;28;20076;-71